Time;durP1;ratioP1;P1;durP2;ratioP2;P2;SDS_P1;SDS_P2;PMS_P1;PMS_P2;Temp;Humidity;BMP_temperature;BMP_pressure;BME280_temperature;BME280_humidity;BME280_pressure;Samples;Min_cycle;Max_cycle;Signal;HPM_P1;HPM_P2
2022/11/24 00:01:10;;;;;;;24.60;4.65;;;6.40;99.90;;;;;;5084006;28;20036;-70
2022/11/24 00:03:36;;;;;;;22.65;4.43;;;6.40;99.90;;;;;;5090646;28;20723;-69
2022/11/24 00:06:07;;;;;;;20.30;3.90;;;6.40;99.90;;;;;;5095620;28;20119;-69
2022/11/24 00:08:37;;;;;;;29.40;5.85;;;6.40;99.90;;;;;;5087661;28;20109;-68
2022/11/24 00:11:11;;;;;;;29.10;4.47;;;6.50;99.90;;;;;;5087900;28;20032;-69
2022/11/24 00:13:40;;;;;;;18.92;4.25;;;6.50;99.90;;;;;;5091061;28;20618;-69
2022/11/24 00:16:18;;;;;;;21.42;4.18;;;6.50;99.90;;;;;;5090418;28;20036;-67
2022/11/24 00:18:45;;;;;;;22.13;4.18;;;6.50;99.90;;;;;;5079928;28;20040;-68
2022/11/24 00:21:11;;;;;;;21.90;4.25;;;6.50;99.90;;;;;;5082565;28;20035;-67
2022/11/24 00:23:37;;;;;;;17.45;4.75;;;6.60;99.90;;;;;;5099922;28;20089;-68
2022/11/24 00:26:17;;;;;;;23.77;4.00;;;6.60;99.90;;;;;;5077232;28;20399;-67
2022/11/24 00:28:44;;;;;;;24.63;3.78;;;6.60;99.90;;;;;;5097482;28;20048;-67
2022/11/24 00:31:31;;;;;;;29.40;5.03;;;6.60;99.90;;;;;;5090209;28;20060;-68
2022/11/24 00:33:58;;;;;;;;;;;6.60;99.90;;;;;;5083542;28;20037;-69
2022/11/24 00:36:26;;;;;;;23.60;4.18;;;6.60;99.90;;;;;;5080899;28;20347;-68
2022/11/24 00:38:54;;;;;;;29.27;3.90;;;6.60;99.90;;;;;;5084081;28;20043;-67
2022/11/24 00:41:20;;;;;;;26.00;4.30;;;6.70;99.90;;;;;;5081824;28;20059;-68
2022/11/24 00:43:46;;;;;;;41.00;4.78;;;6.60;99.90;;;;;;5076745;28;20508;-67
2022/11/24 00:46:12;;;;;;;18.38;3.28;;;6.60;99.90;;;;;;5074824;28;20051;-70
2022/11/24 00:48:37;;;;;;;23.20;4.68;;;6.70;99.90;;;;;;5073960;28;20032;-67
2022/11/24 00:51:04;;;;;;;;;;;6.70;99.90;;;;;;5076283;28;20075;-67
2022/11/24 00:53:30;;;;;;;20.20;4.78;;;6.70;99.90;;;;;;5070580;28;19971;-68
2022/11/24 00:55:56;;;;;;;17.88;3.88;;;6.70;99.90;;;;;;5079388;28;20075;-68
2022/11/24 00:58:23;;;;;;;;;;;6.70;99.90;;;;;;5095788;28;20074;-68
2022/11/24 01:00:49;;;;;;;20.52;3.08;;;6.70;99.90;;;;;;5084823;28;19966;-68
2022/11/24 01:03:16;;;;;;;24.40;4.18;;;6.70;99.90;;;;;;5085522;28;20127;-68
2022/11/24 01:05:44;;;;;;;17.15;3.70;;;6.70;99.90;;;;;;5084586;28;20040;-67
2022/11/24 01:08:10;;;;;;;24.98;4.68;;;6.70;99.90;;;;;;5099683;28;20028;-67
2022/11/24 01:10:36;;;;;;;29.50;4.65;;;6.70;99.90;;;;;;5085425;28;20033;-67
2022/11/24 01:13:21;;;;;;;23.40;4.05;;;6.70;99.90;;;;;;5094075;28;20485;-68
2022/11/24 01:16:11;;;;;;;23.20;3.85;;;6.70;99.90;;;;;;5070238;28;20054;-68
2022/11/24 01:18:57;;;;;;;23.10;4.28;;;6.70;99.90;;;;;;5066752;28;20036;-69
2022/11/24 01:21:43;;;;;;;25.20;3.80;;;6.70;99.90;;;;;;5065813;28;20040;-67
2022/11/24 01:24:29;;;;;;;18.83;3.17;;;6.70;99.90;;;;;;5066645;28;20042;-68
2022/11/24 01:27:15;;;;;;;17.55;3.50;;;6.70;99.90;;;;;;5074690;28;20067;-69
2022/11/24 01:30:01;;;;;;;19.10;4.70;;;6.70;99.90;;;;;;5082298;28;20030;-68
2022/11/24 01:32:47;;;;;;;25.55;4.18;;;6.70;99.90;;;;;;5066058;28;20067;-67
2022/11/24 01:35:33;;;;;;;15.93;3.55;;;6.70;99.90;;;;;;5061858;28;20041;-68
2022/11/24 01:38:20;;;;;;;21.67;3.97;;;6.80;99.90;;;;;;5061180;28;20086;-70
2022/11/24 01:41:13;;;;;;;32.85;4.47;;;6.80;99.90;;;;;;5073438;28;20051;-67
2022/11/24 01:43:59;;;;;;;23.35;5.10;;;6.70;99.90;;;;;;5098383;27;20097;-67
2022/11/24 01:46:49;;;;;;;19.77;2.93;;;6.80;99.90;;;;;;5088801;28;20035;-66
2022/11/24 01:49:43;;;;;;;27.52;4.72;;;6.80;99.90;;;;;;5089737;28;20036;-69
2022/11/24 01:52:37;;;;;;;26.70;4.88;;;6.80;99.90;;;;;;5083214;28;20027;-66
2022/11/24 01:55:30;;;;;;;20.38;3.50;;;6.70;99.90;;;;;;5083284;28;20028;-67
2022/11/24 01:58:28;;;;;;;16.75;3.00;;;6.70;99.90;;;;;;5095766;27;20028;-65
2022/11/24 02:01:13;;;;;;;;;;;6.70;99.90;;;;;;5090826;27;20058;-69
2022/11/24 02:04:01;;;;;;;20.73;4.03;;;6.80;99.90;;;;;;5086294;28;19907;-66
2022/11/24 02:06:47;;;;;;;24.40;4.20;;;6.80;99.90;;;;;;5094763;28;20106;-69
2022/11/24 02:09:48;;;;;;;18.92;3.45;;;6.80;99.90;;;;;;5092136;28;20028;-68
2022/11/24 02:12:36;;;;;;;22.20;3.15;;;6.90;99.90;;;;;;5093428;28;20058;-68
2022/11/24 02:15:23;;;;;;;22.15;3.30;;;6.80;99.90;;;;;;5095740;27;20039;-66
2022/11/24 02:18:09;;;;;;;23.00;4.05;;;6.80;99.90;;;;;;5096720;27;20025;-69
2022/11/24 02:20:55;;;;;;;25.60;3.77;;;6.80;99.90;;;;;;5097829;27;20032;-66
2022/11/24 02:24:11;;;;;;;20.05;3.45;;;6.80;99.90;;;;;;5091671;28;20169;-67
2022/11/24 02:26:57;;;;;;;21.67;3.78;;;6.80;99.90;;;;;;5087882;28;20038;-66
2022/11/24 02:29:43;;;;;;;12.45;2.45;;;6.80;99.90;;;;;;5100692;27;20605;-70
2022/11/24 02:32:30;;;;;;;20.38;3.85;;;6.80;99.90;;;;;;5093828;27;20046;-66
2022/11/24 02:35:17;;;;;;;17.15;3.30;;;6.80;99.90;;;;;;5090306;27;20025;-66
2022/11/24 02:38:03;;;;;;;18.50;3.08;;;6.80;99.90;;;;;;5094866;28;20024;-69
2022/11/24 02:40:49;;;;;;;28.75;4.70;;;6.80;99.90;;;;;;5089529;28;20028;-66
2022/11/24 02:43:40;;;;;;;20.13;3.87;;;6.90;99.90;;;;;;5099860;27;20442;-67
2022/11/24 02:46:27;;;;;;;16.65;4.32;;;6.90;99.90;;;;;;5085099;27;20546;-67
2022/11/24 02:49:12;;;;;;;23.88;3.67;;;6.80;99.90;;;;;;5092540;28;20420;-67
2022/11/24 02:51:59;;;;;;;16.45;3.53;;;6.80;99.90;;;;;;5101534;27;20055;-69
2022/11/24 02:54:45;;;;;;;18.73;5.75;;;6.80;99.90;;;;;;5098208;27;20030;-67
2022/11/24 02:57:31;;;;;;;15.82;3.88;;;6.80;99.90;;;;;;5081918;28;20032;-69
2022/11/24 03:00:17;;;;;;;26.42;4.03;;;6.90;99.90;;;;;;5101963;27;20034;-66
2022/11/24 03:03:03;;;;;;;19.48;3.42;;;6.90;99.90;;;;;;5099835;28;20114;-67
2022/11/24 03:05:49;;;;;;;19.85;4.35;;;6.90;99.90;;;;;;5097664;28;20042;-68
2022/11/24 03:08:35;;;;;;;17.08;3.42;;;6.90;99.90;;;;;;5078553;28;20038;-67
2022/11/24 03:11:21;;;;;;;32.10;5.15;;;6.90;99.90;;;;;;5091519;28;20504;-68
2022/11/24 03:14:07;;;;;;;24.13;4.30;;;6.90;99.90;;;;;;5091557;28;20053;-69
2022/11/24 03:16:53;;;;;;;29.58;2.75;;;6.90;99.90;;;;;;5100339;28;20510;-67
2022/11/24 03:19:39;;;;;;;25.95;3.33;;;7.00;99.90;;;;;;5100119;28;20043;-67
2022/11/24 03:22:25;;;;;;;18.88;3.92;;;6.90;99.90;;;;;;5100621;28;20035;-67
2022/11/24 03:25:11;;;;;;;22.10;3.88;;;7.00;99.90;;;;;;5088987;28;20035;-66
2022/11/24 03:27:57;;;;;;;20.75;3.50;;;7.00;99.90;;;;;;5105990;28;20032;-69
2022/11/24 03:30:43;;;;;;;15.50;2.97;;;6.90;99.90;;;;;;5090639;28;20667;-66
2022/11/24 03:33:29;;;;;;;25.10;4.10;;;6.90;99.90;;;;;;5096163;28;20036;-68
2022/11/24 03:36:15;;;;;;;10.23;2.70;;;6.90;99.90;;;;;;5088921;28;20028;-69
2022/11/24 03:39:01;;;;;;;25.63;3.75;;;6.90;99.90;;;;;;5085170;28;20059;-67
2022/11/24 03:41:50;;;;;;;24.35;3.65;;;6.90;99.90;;;;;;5085376;28;20066;-66
2022/11/24 03:44:36;;;;;;;24.98;3.35;;;6.90;99.90;;;;;;5088315;28;20431;-70
2022/11/24 03:47:21;;;;;;;21.77;3.45;;;7.00;99.90;;;;;;5098920;28;20122;-66
2022/11/24 03:50:08;;;;;;;22.02;3.75;;;7.00;99.90;;;;;;5087132;28;20032;-69
2022/11/24 03:52:54;;;;;;;21.50;3.47;;;7.00;99.90;;;;;;5104547;27;20092;-67
2022/11/24 03:55:42;;;;;;;25.77;3.60;;;7.00;99.90;;;;;;5089122;28;20103;-67
2022/11/24 03:58:28;;;;;;;26.88;4.85;;;7.00;99.90;;;;;;5092714;28;20020;-67
2022/11/24 04:01:14;;;;;;;26.08;3.83;;;7.00;99.90;;;;;;5093786;27;20036;-66
2022/11/24 04:04:00;;;;;;;28.13;4.05;;;7.00;99.90;;;;;;5101923;27;20023;-70
2022/11/24 04:06:46;;;;;;;21.70;3.55;;;7.00;99.90;;;;;;5091368;27;20402;-70
2022/11/24 04:09:32;;;;;;;17.67;4.05;;;6.90;99.90;;;;;;5091355;27;20664;-66
2022/11/24 04:15:22;;;;;;;23.70;4.15;;;7.00;99.90;;;;;;5091419;28;20071;-69
2022/11/24 04:18:09;;;;;;;21.03;3.77;;;7.00;99.90;;;;;;5101294;27;20642;-68
2022/11/24 04:20:55;;;;;;;27.80;3.33;;;7.00;99.90;;;;;;5093426;28;20027;-67
2022/11/24 04:23:41;;;;;;;26.90;4.43;;;7.00;99.90;;;;;;5100313;27;20111;-67
2022/11/24 04:26:27;;;;;;;17.60;3.25;;;7.00;99.90;;;;;;5082812;28;20598;-67
2022/11/24 04:29:13;;;;;;;20.92;5.35;;;6.90;99.90;;;;;;5089878;28;20059;-68
2022/11/24 04:31:59;;;;;;;10.93;2.70;;;6.90;99.90;;;;;;5098826;27;20499;-66
2022/11/24 04:34:45;;;;;;;12.97;2.70;;;7.00;99.90;;;;;;5095509;27;20038;-66
2022/11/24 04:37:31;;;;;;;12.82;2.15;;;7.00;99.90;;;;;;5088924;28;20730;-67
2022/11/24 04:40:17;;;;;;;16.02;2.80;;;7.00;99.90;;;;;;5075790;28;20216;-66
2022/11/24 04:43:03;;;;;;;25.17;3.15;;;7.00;99.90;;;;;;5098430;28;20034;-68
2022/11/24 04:45:49;;;;;;;21.77;3.80;;;7.00;99.90;;;;;;5095449;28;20036;-67
2022/11/24 04:48:35;;;;;;;24.65;3.08;;;7.00;99.90;;;;;;5100911;27;20157;-66
2022/11/24 04:51:21;;;;;;;23.27;3.38;;;7.00;99.90;;;;;;5096111;27;20031;-69
2022/11/24 04:54:09;;;;;;;19.85;3.92;;;7.00;99.90;;;;;;5103319;27;20023;-67
2022/11/24 04:56:55;;;;;;;20.70;2.97;;;7.00;99.90;;;;;;5098453;27;20027;-66
2022/11/24 04:59:41;;;;;;;18.92;4.18;;;7.00;99.90;;;;;;5083319;28;20085;-66
2022/11/24 05:02:27;;;;;;;22.67;3.50;;;7.00;99.90;;;;;;5087383;28;20047;-68
2022/11/24 05:05:13;;;;;;;24.13;3.92;;;7.00;99.90;;;;;;5087789;28;20266;-68
2022/11/24 05:07:59;;;;;;;28.17;3.25;;;7.00;99.90;;;;;;5103471;27;20036;-68
2022/11/24 05:10:45;;;;;;;21.70;4.20;;;6.90;99.90;;;;;;5091630;28;20080;-68
2022/11/24 05:13:32;;;;;;;14.68;3.47;;;6.80;99.90;;;;;;5098643;27;20023;-69
2022/11/24 05:16:17;;;;;;;21.48;3.92;;;6.70;99.90;;;;;;5079808;27;20032;-69
2022/11/24 05:19:03;;;;;;;37.75;5.20;;;6.70;99.90;;;;;;5089309;27;20034;-68
2022/11/24 05:21:51;;;;;;;28.73;4.45;;;6.70;99.90;;;;;;5082972;28;20885;-69
2022/11/24 05:24:37;;;;;;;34.38;4.35;;;6.70;99.90;;;;;;5093794;28;20225;-70
2022/11/24 05:27:22;;;;;;;24.83;5.03;;;6.60;99.90;;;;;;5102278;27;20030;-66
2022/11/24 05:30:09;;;;;;;23.40;3.20;;;6.60;99.90;;;;;;5085298;28;20087;-68
2022/11/24 05:32:55;;;;;;;;;;;6.50;99.90;;;;;;5080979;28;20039;-73
2022/11/24 05:35:41;;;;;;;22.27;4.22;;;6.50;99.90;;;;;;5085432;28;19908;-67
2022/11/24 05:38:28;;;;;;;21.67;3.27;;;6.60;99.90;;;;;;5091376;28;20031;-67
2022/11/24 05:41:14;;;;;;;26.63;4.00;;;6.60;99.90;;;;;;5092568;28;20031;-67
2022/11/24 05:44:00;;;;;;;27.27;4.37;;;6.60;99.90;;;;;;5101862;27;20068;-69
2022/11/24 05:46:46;;;;;;;24.35;3.75;;;6.70;99.90;;;;;;5082739;28;20036;-69
2022/11/24 05:49:32;;;;;;;39.90;6.07;;;6.70;99.90;;;;;;5094295;28;20089;-68
2022/11/24 05:52:18;;;;;;;26.80;3.97;;;6.70;99.90;;;;;;5100284;27;20102;-69
2022/11/24 05:55:05;;;;;;;28.13;4.32;;;6.60;99.90;;;;;;5085633;27;20023;-70
2022/11/24 05:57:58;;;;;;;31.90;3.78;;;6.60;99.90;;;;;;5096087;28;20027;-68
2022/11/24 06:00:44;;;;;;;20.83;3.67;;;6.50;99.90;;;;;;5094242;27;20082;-68
2022/11/24 06:03:30;;;;;;;28.17;5.10;;;6.50;99.90;;;;;;5100592;27;20035;-68
2022/11/24 06:06:16;;;;;;;28.77;3.97;;;6.50;99.90;;;;;;5087802;27;20131;-63
2022/11/24 06:09:02;;;;;;;30.33;4.30;;;6.50;99.90;;;;;;5088610;28;20559;-66
2022/11/24 06:11:48;;;;;;;23.90;4.07;;;6.50;99.90;;;;;;5094527;28;20027;-66
2022/11/24 06:14:34;;;;;;;21.65;4.10;;;6.50;99.90;;;;;;5086586;28;20024;-66
2022/11/24 06:17:20;;;;;;;22.13;3.08;;;6.60;99.90;;;;;;5081221;28;20031;-67
2022/11/24 06:20:08;;;;;;;28.15;4.97;;;6.60;99.90;;;;;;5089597;28;20035;-67
2022/11/24 06:22:57;;;;;;;22.35;3.67;;;6.60;99.90;;;;;;5085909;28;20085;-66
2022/11/24 06:25:43;;;;;;;30.65;4.38;;;6.60;99.90;;;;;;5089973;28;20107;-67
2022/11/24 06:28:29;;;;;;;18.50;3.22;;;6.70;99.90;;;;;;5092043;27;20023;-65
2022/11/24 06:31:15;;;;;;;30.63;4.60;;;6.70;99.90;;;;;;5083391;27;20125;-67
2022/11/24 06:34:01;;;;;;;20.77;3.90;;;6.70;99.90;;;;;;5108929;27;20227;-66
2022/11/24 06:36:47;;;;;;;23.52;3.97;;;6.60;99.90;;;;;;5092935;28;20089;-67
2022/11/24 06:39:33;;;;;;;19.00;4.33;;;6.60;99.90;;;;;;5088617;28;20036;-66
2022/11/24 06:42:20;;;;;;;21.42;3.67;;;6.60;99.90;;;;;;5088223;27;20801;-68
2022/11/24 06:45:06;;;;;;;24.42;2.83;;;6.60;99.90;;;;;;5083790;28;20527;-67
2022/11/24 06:47:53;;;;;;;24.20;4.53;;;6.60;99.90;;;;;;5086473;27;20738;-69
2022/11/24 06:50:39;;;;;;;25.23;4.45;;;6.60;99.90;;;;;;5072132;28;20040;-69
2022/11/24 06:53:28;;;;;;;27.73;3.73;;;6.60;99.90;;;;;;5092482;28;20115;-69
2022/11/24 06:56:18;;;;;;;18.50;3.15;;;6.60;99.90;;;;;;5070532;28;20035;-69
2022/11/24 06:59:04;;;;;;;28.33;3.55;;;6.60;99.90;;;;;;5093590;28;20035;-70
2022/11/24 07:01:50;;;;;;;19.30;3.60;;;6.60;99.90;;;;;;5085446;28;20075;-66
2022/11/24 07:04:36;;;;;;;13.55;2.67;;;6.60;99.90;;;;;;5087405;28;20126;-68
2022/11/24 07:07:21;;;;;;;20.50;3.28;;;6.60;99.90;;;;;;5091943;28;20532;-67
2022/11/24 07:10:07;;;;;;;17.80;3.53;;;6.60;99.90;;;;;;5089752;28;20058;-68
2022/11/24 07:12:53;;;;;;;17.47;3.07;;;6.60;99.90;;;;;;5084648;28;20047;-69
2022/11/24 07:15:39;;;;;;;14.48;3.33;;;6.60;99.90;;;;;;5082301;28;20771;-69
2022/11/24 07:18:25;;;;;;;21.30;3.88;;;6.60;99.90;;;;;;5087408;28;20032;-70
2022/11/24 07:21:11;;;;;;;19.63;4.27;;;6.60;99.90;;;;;;5081277;28;20056;-69
2022/11/24 07:23:57;;;;;;;16.83;2.58;;;6.60;99.90;;;;;;5081941;28;21228;-66
2022/11/24 07:26:43;;;;;;;15.10;2.80;;;6.60;99.90;;;;;;5084908;28;20110;-69
2022/11/24 07:29:29;;;;;;;13.23;2.05;;;6.60;99.90;;;;;;5087367;28;20058;-66
2022/11/24 07:32:15;;;;;;;12.83;2.20;;;6.60;99.90;;;;;;5092333;28;20027;-67
2022/11/24 07:35:01;;;;;;;17.40;2.40;;;6.60;99.90;;;;;;5104706;27;20632;-66
2022/11/24 07:37:47;;;;;;;16.02;2.85;;;6.70;99.90;;;;;;5091056;28;20093;-68
2022/11/24 07:40:33;;;;;;;11.73;2.37;;;6.70;99.90;;;;;;5093111;28;20035;-68
2022/11/24 07:43:19;;;;;;;10.85;1.92;;;6.70;99.90;;;;;;5090682;28;20481;-69
2022/11/24 07:46:08;;;;;;;12.80;2.10;;;6.70;99.90;;;;;;5098025;27;20714;-68
2022/11/24 07:48:54;;;;;;;21.20;3.88;;;6.70;99.90;;;;;;5094935;28;20483;-69
2022/11/24 07:51:40;;;;;;;27.92;4.68;;;6.70;99.90;;;;;;5093386;27;20111;-69
2022/11/24 07:54:26;;;;;;;15.00;2.22;;;6.70;99.90;;;;;;5089901;28;20726;-68
2022/11/24 07:57:12;;;;;;;25.10;3.50;;;6.70;99.90;;;;;;5098751;27;20026;-66
2022/11/24 07:59:58;;;;;;;14.23;3.05;;;6.70;99.90;;;;;;5107793;27;20070;-65
2022/11/24 08:02:44;;;;;;;12.25;2.03;;;6.70;99.90;;;;;;5093133;27;20480;-70
2022/11/24 08:05:29;;;;;;;12.40;2.92;;;6.70;99.90;;;;;;5094574;27;20640;-70
2022/11/24 08:08:15;;;;;;;13.63;2.83;;;6.70;99.90;;;;;;5101093;27;20035;-67
2022/11/24 08:11:10;;;;;;;18.02;2.45;;;6.70;99.90;;;;;;5090740;28;20646;-67
2022/11/24 08:13:56;;;;;;;17.17;2.05;;;6.60;99.90;;;;;;5099603;27;20027;-70
2022/11/24 08:16:42;;;;;;;13.50;2.67;;;6.50;99.90;;;;;;5075773;28;20055;-69
2022/11/24 08:19:28;;;;;;;15.20;2.55;;;6.50;99.90;;;;;;5093289;28;20305;-66
2022/11/24 08:22:14;;;;;;;16.83;2.23;;;6.50;99.90;;;;;;5100946;27;20526;-66
2022/11/24 08:25:00;;;;;;;10.65;2.85;;;6.50;99.90;;;;;;5093726;28;20116;-70
2022/11/24 08:27:46;;;;;;;8.98;2.20;;;6.50;99.90;;;;;;5093077;28;20519;-66
2022/11/24 08:30:32;;;;;;;8.48;1.70;;;6.60;99.90;;;;;;5091196;28;20043;-67
2022/11/24 08:33:17;;;;;;;10.30;2.20;;;6.60;99.90;;;;;;5097018;27;20027;-66
2022/11/24 08:36:04;;;;;;;5.13;1.52;;;6.60;99.90;;;;;;5094227;27;20561;-68
2022/11/24 08:38:55;;;;;;;11.75;2.20;;;6.60;99.90;;;;;;5092316;28;20048;-71
2022/11/24 08:41:41;;;;;;;10.35;1.50;;;6.60;99.90;;;;;;5093207;28;20038;-68
2022/11/24 08:44:28;;;;;;;6.50;1.15;;;6.70;99.90;;;;;;5088636;28;20117;-72
2022/11/24 08:47:14;;;;;;;6.28;2.17;;;6.70;99.90;;;;;;5090311;27;20569;-68
2022/11/24 08:50:00;;;;;;;6.68;1.15;;;6.70;99.90;;;;;;5089413;28;20028;-71
2022/11/24 08:52:46;;;;;;;3.78;1.08;;;6.70;99.90;;;;;;5062456;27;20031;-71
2022/11/24 08:55:32;;;;;;;4.90;1.35;;;6.70;99.90;;;;;;5079666;28;20023;-71
2022/11/24 08:58:18;;;;;;;4.73;0.90;;;6.80;99.90;;;;;;5091196;27;20023;-73
2022/11/24 09:01:06;;;;;;;2.90;0.93;;;6.80;99.90;;;;;;5085827;28;20032;-70
2022/11/24 09:03:53;;;;;;;3.72;0.90;;;6.80;99.90;;;;;;5091175;28;20024;-72
2022/11/24 09:06:39;;;;;;;4.88;0.80;;;6.90;99.90;;;;;;5085365;27;20731;-73
2022/11/24 09:09:24;;;;;;;3.72;0.75;;;7.00;99.90;;;;;;5088790;27;20035;-69
2022/11/24 09:12:10;;;;;;;6.30;1.38;;;7.10;99.90;;;;;;5089584;28;20023;-72
2022/11/24 09:14:56;;;;;;;2.72;0.90;;;7.30;99.90;;;;;;5086449;28;20020;-70
2022/11/24 09:17:42;;;;;;;2.75;0.73;;;7.40;99.90;;;;;;5082518;27;20746;-72
2022/11/24 09:20:28;;;;;;;6.10;0.90;;;7.50;99.90;;;;;;5087945;28;20031;-73
2022/11/24 09:23:14;;;;;;;6.40;0.90;;;7.50;99.90;;;;;;5094720;28;20519;-71
2022/11/24 09:26:11;;;;;;;5.77;1.00;;;7.50;99.90;;;;;;5084438;28;20051;-71
2022/11/24 09:28:59;;;;;;;5.05;1.13;;;7.30;99.90;;;;;;5092927;28;20590;-71
2022/11/24 09:31:45;;;;;;;6.95;1.45;;;7.40;99.90;;;;;;5091359;27;20311;-70
2022/11/24 09:34:31;;;;;;;3.95;0.95;;;7.40;99.90;;;;;;5094376;28;20066;-73
2022/11/24 09:37:17;;;;;;;6.72;0.98;;;7.30;99.90;;;;;;5088356;28;20055;-72
2022/11/24 09:40:04;;;;;;;8.98;1.42;;;7.30;99.90;;;;;;5088073;28;20081;-73
2022/11/24 09:42:59;;;;;;;5.60;1.48;;;7.30;99.90;;;;;;5099705;27;20427;-70
2022/11/24 09:45:49;;;;;;;6.50;1.98;;;7.20;99.90;;;;;;5080202;28;20619;-73
2022/11/24 09:48:40;;;;;;;6.32;1.30;;;7.30;99.90;;;;;;5089741;27;20081;-73
2022/11/24 09:51:28;;;;;;;10.02;1.40;;;7.30;99.90;;;;;;5083251;28;20032;-72
2022/11/24 09:54:25;;;;;;;7.68;1.70;;;7.40;99.90;;;;;;5094030;28;20701;-69
2022/11/24 09:57:14;;;;;;;7.15;1.83;;;7.40;99.90;;;;;;5093325;28;20550;-68
2022/11/24 10:00:06;;;;;;;9.07;2.33;;;7.50;99.90;;;;;;5082257;28;20035;-69
2022/11/24 10:02:52;;;;;;;8.25;1.58;;;7.50;99.90;;;;;;5085319;28;20644;-70
2022/11/24 10:05:38;;;;;;;3.95;1.25;;;7.60;99.90;;;;;;5085473;27;20039;-69
2022/11/24 10:09:07;;;;;;;6.00;1.47;;;7.60;99.90;;;;;;5088154;28;20066;-67
2022/11/24 10:11:57;;;;;;;;;;;7.60;99.90;;;;;;5084993;28;20131;-68
2022/11/24 10:14:57;;;;;;;8.13;1.80;;;7.50;99.90;;;;;;5093156;28;19908;-71
2022/11/24 10:18:07;;;;;;;10.10;1.60;;;7.50;99.90;;;;;;5083822;27;20031;-72
2022/11/24 10:21:24;;;;;;;10.15;1.67;;;7.50;99.90;;;;;;5082867;28;20594;-71
2022/11/24 10:24:18;;;;;;;3.03;1.30;;;7.60;99.90;;;;;;5092485;28;20625;-73
2022/11/24 10:27:36;;;;;;;3.15;1.25;;;7.60;99.90;;;;;;5074796;27;20085;-68
2022/11/24 10:30:23;;;;;;;4.85;1.08;;;7.60;99.90;;;;;;5087918;28;20028;-69
2022/11/24 10:33:17;;;;;;;4.07;1.10;;;7.60;99.90;;;;;;5103937;27;20096;-68
2022/11/24 10:36:20;;;;;;;5.38;1.15;;;7.50;99.90;;;;;;5088589;27;20479;-70
2022/11/24 10:39:35;;;;;;;6.43;1.35;;;7.50;99.90;;;;;;5097161;27;20093;-71
2022/11/24 10:42:32;;;;;;;5.82;1.70;;;7.40;99.90;;;;;;5063285;28;20088;-69
2022/11/24 10:45:21;;;;;;;4.00;1.20;;;7.40;99.90;;;;;;5086037;27;20030;-68
2022/11/24 10:48:22;;;;;;;10.05;1.65;;;7.30;99.90;;;;;;5103874;27;20034;-69
2022/11/24 10:51:51;;;;;;;4.95;1.13;;;7.40;99.90;;;;;;5082112;27;20511;-73
2022/11/24 10:55:02;;;;;;;3.60;1.00;;;7.60;99.90;;;;;;5071105;28;20106;-72
2022/11/24 10:57:48;;;;;;;2.67;1.23;;;7.60;99.90;;;;;;5098434;27;20031;-73
2022/11/24 11:00:34;;;;;;;4.60;1.40;;;7.60;99.90;;;;;;5083776;28;20031;-70
2022/11/24 11:03:24;;;;;;;5.57;0.95;;;7.60;99.90;;;;;;5098963;28;20038;-72
2022/11/24 11:06:30;;;;;;;2.65;0.70;;;7.60;99.90;;;;;;5087989;28;20859;-68
2022/11/24 11:09:19;;;;;;;5.18;0.95;;;7.50;99.90;;;;;;5090579;28;20111;-70
2022/11/24 11:12:10;;;;;;;2.40;0.98;;;7.40;99.90;;;;;;5085765;28;20055;-72
2022/11/24 11:15:22;;;;;;;4.43;1.30;;;7.30;99.90;;;;;;5088809;28;20040;-70
2022/11/24 11:18:15;;;;;;;10.77;1.38;;;7.30;99.90;;;;;;5102533;28;20667;-71
2022/11/24 11:21:02;;;;;;;6.32;1.10;;;7.30;99.90;;;;;;5091242;28;20031;-71
2022/11/24 11:23:50;;;;;;;;;;;7.20;99.90;;;;;;5099424;28;20028;-71
2022/11/24 11:26:38;;;;;;;3.88;1.23;;;7.20;99.90;;;;;;5088624;28;19912;-70
2022/11/24 11:29:26;;;;;;;4.63;1.25;;;7.20;99.90;;;;;;5093205;28;20644;-68
2022/11/24 11:32:24;;;;;;;5.82;1.48;;;7.20;99.90;;;;;;5088207;28;20024;-64
2022/11/24 11:35:12;;;;;;;5.75;1.33;;;7.20;99.90;;;;;;5079047;28;20038;-74
2022/11/24 11:38:02;;;;;;;5.38;1.40;;;7.30;99.90;;;;;;5093563;28;20027;-71
2022/11/24 11:40:50;;;;;;;4.03;1.13;;;7.30;99.90;;;;;;5085952;28;20036;-68
2022/11/24 11:43:39;;;;;;;6.47;1.70;;;7.30;99.90;;;;;;5092494;28;20645;-69
2022/11/24 11:46:29;;;;;;;4.80;1.10;;;7.30;99.90;;;;;;5088865;28;20063;-72
2022/11/24 11:49:15;;;;;;;2.95;1.08;;;7.30;99.90;;;;;;5083183;28;20886;-70
2022/11/24 11:52:26;;;;;;;4.67;1.53;;;7.40;99.90;;;;;;5087532;28;20303;-69
2022/11/24 11:55:45;;;;;;;6.80;2.13;;;7.40;99.90;;;;;;5085553;28;20011;-72
2022/11/24 11:58:50;;;;;;;;;;;7.40;99.90;;;;;;5085846;28;20103;-71
2022/11/24 12:02:00;;;;;;;3.75;1.30;;;7.50;99.90;;;;;;5065410;28;19922;-69
2022/11/24 12:04:49;;;;;;;9.55;1.30;;;7.60;99.90;;;;;;5088351;28;20032;-68
2022/11/24 12:08:02;;;;;;;6.75;1.80;;;7.50;99.90;;;;;;5091452;28;20036;-69
2022/11/24 12:11:08;;;;;;;5.20;1.38;;;7.50;99.90;;;;;;5083185;28;20077;-70
2022/11/24 12:14:10;;;;;;;4.18;1.50;;;7.50;99.90;;;;;;5102679;27;20044;-69
2022/11/24 12:17:01;;;;;;;3.70;1.60;;;7.50;99.90;;;;;;5084992;28;20115;-69
2022/11/24 12:20:26;;;;;;;8.50;1.95;;;7.60;99.90;;;;;;5092018;28;20032;-70
2022/11/24 12:23:17;;;;;;;6.28;1.90;;;7.60;99.90;;;;;;5069735;27;20604;-68
2022/11/24 12:26:27;;;;;;;6.80;1.95;;;7.70;99.90;;;;;;5093866;27;20028;-72
2022/11/24 12:29:34;;;;;;;6.85;1.80;;;7.80;99.90;;;;;;5073334;28;20023;-67
2022/11/24 12:32:56;;;;;;;4.63;1.80;;;7.80;99.90;;;;;;5080579;28;20038;-68
2022/11/24 12:36:05;;;;;;;4.80;1.83;;;7.60;99.90;;;;;;5088554;28;20031;-70
2022/11/24 12:39:13;;;;;;;4.25;1.85;;;7.60;99.90;;;;;;5088940;28;20032;-69
2022/11/24 12:42:15;;;;;;;7.40;2.60;;;7.60;99.90;;;;;;5088157;28;20031;-68
2022/11/24 12:45:12;;;;;;;7.90;2.30;;;7.60;99.90;;;;;;5100637;27;20035;-70
2022/11/24 12:48:12;;;;;;;7.95;1.88;;;7.70;99.90;;;;;;5092896;27;20042;-71
2022/11/24 12:51:00;;;;;;;8.55;2.28;;;7.60;99.90;;;;;;5085454;28;20792;-67
2022/11/24 12:53:48;;;;;;;8.43;2.45;;;7.60;99.90;;;;;;5088172;28;20024;-67
2022/11/24 12:57:03;;;;;;;15.30;2.60;;;7.60;99.90;;;;;;5085882;28;20450;-67
2022/11/24 12:59:56;;;;;;;7.13;2.70;;;7.60;99.90;;;;;;5059726;28;20046;-71
2022/11/24 13:03:07;;;;;;;7.95;2.05;;;7.60;99.90;;;;;;5087202;28;20189;-70
2022/11/24 13:06:00;;;;;;;7.47;3.28;;;7.60;99.90;;;;;;5085446;28;20127;-71
2022/11/24 13:08:46;;;;;;;7.75;2.75;;;7.50;99.90;;;;;;5096748;28;20028;-71
2022/11/24 13:11:44;;;;;;;8.35;2.40;;;7.60;99.90;;;;;;5095368;28;20027;-69
2022/11/24 13:14:31;;;;;;;5.10;2.55;;;7.50;99.90;;;;;;5084724;28;20836;-68
2022/11/24 13:17:29;;;;;;;7.18;3.15;;;7.50;99.90;;;;;;5087325;28;20054;-67
2022/11/24 13:20:18;;;;;;;13.90;2.80;;;7.50;99.90;;;;;;5092242;27;20046;-68
2022/11/24 13:23:19;;;;;;;9.50;2.92;;;7.50;99.90;;;;;;5104306;27;20118;-69
2022/11/24 13:26:14;;;;;;;11.40;2.90;;;7.60;99.90;;;;;;5095393;27;20105;-70
2022/11/24 13:29:03;;;;;;;6.97;2.85;;;7.60;99.90;;;;;;5103271;27;20024;-71
2022/11/24 13:31:49;;;;;;;10.35;3.13;;;7.60;99.90;;;;;;5087381;27;20111;-70
2022/11/24 13:34:34;;;;;;;;;;;7.60;99.90;;;;;;5096079;27;20152;-68
2022/11/24 13:36:59;;;;;;;10.77;3.60;;;7.60;99.90;;;;;;5094136;28;19919;-69
2022/11/24 13:39:45;;;;;;;;;;;7.60;99.90;;;;;;5100694;28;20039;-69
2022/11/24 13:42:10;;;;;;;12.50;3.28;;;7.60;99.90;;;;;;5098051;27;19920;-68
2022/11/24 13:45:02;;;;;;;;;;;7.50;99.90;;;;;;5093848;28;20662;-68
2022/11/24 13:47:42;;;;;;;7.60;2.70;;;7.40;99.90;;;;;;5095445;28;20434;-69
2022/11/24 13:50:19;;;;;;;9.70;2.72;;;7.40;99.90;;;;;;5097772;28;20040;-69
2022/11/24 13:52:50;;;;;;;12.95;2.92;;;7.40;99.90;;;;;;5108806;27;20561;-67
2022/11/24 13:55:18;;;;;;;14.75;3.50;;;7.40;99.90;;;;;;5100113;27;20364;-68
2022/11/24 13:57:47;;;;;;;7.22;2.55;;;7.40;99.90;;;;;;5084636;28;20066;-69
2022/11/24 14:00:53;;;;;;;12.82;4.47;;;7.40;99.90;;;;;;5062819;27;20047;-70
2022/11/24 14:03:30;;;;;;;14.88;2.70;;;7.40;99.90;;;;;;5109672;27;20054;-67
2022/11/24 14:05:57;;;;;;;10.32;3.58;;;7.30;99.90;;;;;;5104674;27;20054;-69
2022/11/24 14:08:26;;;;;;;11.80;3.05;;;7.30;99.90;;;;;;5095991;28;20057;-68
2022/11/24 14:10:53;;;;;;;11.93;2.72;;;7.30;99.90;;;;;;5097464;28;20055;-69
2022/11/24 14:13:22;;;;;;;10.80;2.63;;;7.30;99.90;;;;;;5113193;27;20031;-69
2022/11/24 14:16:17;;;;;;;12.68;3.78;;;7.30;99.90;;;;;;5100954;27;20047;-67
2022/11/24 14:18:45;;;;;;;13.90;3.63;;;7.30;99.90;;;;;;5113496;27;20165;-68
2022/11/24 14:21:25;;;;;;;10.10;3.05;;;7.20;99.90;;;;;;5102186;27;20031;-69
2022/11/24 14:23:55;;;;;;;12.95;3.35;;;7.10;99.90;;;;;;5100802;28;20050;-68
2022/11/24 14:26:34;;;;;;;15.60;3.95;;;7.00;99.90;;;;;;5098832;28;20032;-68
2022/11/24 14:29:32;;;;;;;15.05;3.40;;;7.00;99.90;;;;;;5084522;28;20059;-67
2022/11/24 14:32:00;;;;;;;14.73;3.45;;;6.90;99.90;;;;;;5088997;28;20046;-67
2022/11/24 14:34:31;;;;;;;9.13;3.03;;;6.80;99.90;;;;;;5102201;28;20606;-68
2022/11/24 14:37:00;;;;;;;17.48;3.88;;;6.80;99.90;;;;;;5095633;27;20040;-68
2022/11/24 14:39:27;;;;;;;16.02;3.22;;;6.70;99.90;;;;;;5099455;28;20632;-68